Nashville, Tennessee
Traffic Map
Current Weather Conditions
Nashville, Tennessee
Scattered Clouds
Scattered Clouds
75°
Feels Like: 75°
Wind Chill: 75° Ceiling: Unl
Heat Index: 75° Visibility: 9mi
Dew Point: 72° Wind: 0mph
Humidity: 90% Direction: ° ()
Pressure: 30.05in Gusts: 0mph
Raw Report DataKBNA 270853Z 00000KT 9SM SCT250 24/22 A3005 RMK AO2 SLP169 T02390222 56009 $
Traffic Incident Summary
Active as of:
Severity:
Category:
InformationThere was an issue retrieving the traffic information for this location. Please try a different location or try again shortly.
Advertisements
Track Severe Weather on mobile